sensor_id;sensor_type;location;lat;lon;timestamp;pressure;altitude;pressure_sealevel;temperature;humidity
11678;BME280;5895;41.950;24.372;2023-04-26T00:02:05;85904.72;;;6.96;100.00
11678;BME280;5895;41.950;24.372;2023-04-26T00:04:32;85906.31;;;6.97;100.00
11678;BME280;5895;41.950;24.372;2023-04-26T00:07:01;85907.25;;;6.91;100.00
11678;BME280;5895;41.950;24.372;2023-04-26T00:09:29;85901.59;;;6.94;100.00
11678;BME280;5895;41.950;24.372;2023-04-26T00:11:56;85911.94;;;6.94;100.00
11678;BME280;5895;41.950;24.372;2023-04-26T00:14:24;85911.16;;;6.93;100.00
11678;BME280;5895;41.950;24.372;2023-04-26T00:16:51;85901.59;;;6.94;100.00
11678;BME280;5895;41.950;24.372;2023-04-26T00:19:19;85898.50;;;6.92;100.00
11678;BME280;5895;41.950;24.372;2023-04-26T00:21:46;85901.28;;;6.90;100.00
11678;BME280;5895;41.950;24.372;2023-04-26T00:24:14;85890.19;;;6.89;100.00
11678;BME280;5895;41.950;24.372;2023-04-26T00:26:41;85894.56;;;6.89;100.00
11678;BME280;5895;41.950;24.372;2023-04-26T00:29:08;85888.63;;;6.88;100.00
11678;BME280;5895;41.950;24.372;2023-04-26T00:31:35;85886.28;;;6.87;100.00
11678;BME280;5895;41.950;24.372;2023-04-26T00:34:03;85873.63;;;6.85;100.00
11678;BME280;5895;41.950;24.372;2023-04-26T00:36:30;85873.28;;;6.82;100.00
11678;BME280;5895;41.950;24.372;2023-04-26T00:38:57;85868.56;;;6.79;100.00
11678;BME280;5895;41.950;24.372;2023-04-26T00:41:25;85874.44;;;6.74;100.00
11678;BME280;5895;41.950;24.372;2023-04-26T00:43:53;85865.25;;;6.67;100.00
11678;BME280;5895;41.950;24.372;2023-04-26T00:46:20;85861.66;;;6.68;100.00
11678;BME280;5895;41.950;24.372;2023-04-26T00:48:48;85871.66;;;6.64;100.00
11678;BME280;5895;41.950;24.372;2023-04-26T00:51:15;85862.56;;;6.61;100.00
11678;BME280;5895;41.950;24.372;2023-04-26T00:53:42;85866.16;;;6.60;100.00
11678;BME280;5895;41.950;24.372;2023-04-26T00:56:10;85862.25;;;6.58;100.00
11678;BME280;5895;41.950;24.372;2023-04-26T00:58:39;85862.69;;;6.55;100.00
11678;BME280;5895;41.950;24.372;2023-04-26T01:01:06;85867.53;;;6.51;100.00
11678;BME280;5895;41.950;24.372;2023-04-26T01:03:34;85870.00;;;6.46;100.00
11678;BME280;5895;41.950;24.372;2023-04-26T01:06:01;85863.84;;;6.47;100.00
11678;BME280;5895;41.950;24.372;2023-04-26T01:08:28;85857.34;;;6.45;100.00
11678;BME280;5895;41.950;24.372;2023-04-26T01:10:57;85856.13;;;6.35;100.00
11678;BME280;5895;41.950;24.372;2023-04-26T01:13:24;85858.72;;;6.35;99.98
11678;BME280;5895;41.950;24.372;2023-04-26T01:15:53;85861.19;;;6.30;100.00
11678;BME280;5895;41.950;24.372;2023-04-26T01:18:21;85865.84;;;6.33;100.00
11678;BME280;5895;41.950;24.372;2023-04-26T01:20:49;85855.44;;;6.28;99.49
11678;BME280;5895;41.950;24.372;2023-04-26T01:23:18;85856.16;;;6.24;100.00
11678;BME280;5895;41.950;24.372;2023-04-26T01:25:46;85849.88;;;6.20;100.00
11678;BME280;5895;41.950;24.372;2023-04-26T01:28:13;85851.56;;;6.14;100.00
11678;BME280;5895;41.950;24.372;2023-04-26T01:30:40;85844.28;;;6.11;100.00
11678;BME280;5895;41.950;24.372;2023-04-26T01:33:08;85840.59;;;6.07;99.88
11678;BME280;5895;41.950;24.372;2023-04-26T01:35:35;85853.34;;;6.02;99.86
11678;BME280;5895;41.950;24.372;2023-04-26T01:38:02;85851.00;;;6.00;100.00
11678;BME280;5895;41.950;24.372;2023-04-26T01:40:31;85858.16;;;5.98;100.00
11678;BME280;5895;41.950;24.372;2023-04-26T01:42:58;85864.56;;;5.96;99.92
11678;BME280;5895;41.950;24.372;2023-04-26T01:45:25;85858.81;;;5.94;100.00
11678;BME280;5895;41.950;24.372;2023-04-26T01:47:53;85859.25;;;5.91;100.00
11678;BME280;5895;41.950;24.372;2023-04-26T01:50:20;85861.06;;;5.90;99.71
11678;BME280;5895;41.950;24.372;2023-04-26T01:52:47;85863.63;;;5.90;100.00
11678;BME280;5895;41.950;24.372;2023-04-26T01:55:15;85866.97;;;5.91;100.00
11678;BME280;5895;41.950;24.372;2023-04-26T01:57:43;85861.84;;;5.91;100.00
11678;BME280;5895;41.950;24.372;2023-04-26T02:00:11;85846.81;;;5.88;100.00
11678;BME280;5895;41.950;24.372;2023-04-26T02:02:38;85843.47;;;5.87;100.00
11678;BME280;5895;41.950;24.372;2023-04-26T02:05:08;85849.16;;;5.89;100.00
11678;BME280;5895;41.950;24.372;2023-04-26T02:07:35;85843.25;;;5.89;100.00
11678;BME280;5895;41.950;24.372;2023-04-26T02:10:02;85846.59;;;5.89;100.00
11678;BME280;5895;41.950;24.372;2023-04-26T02:12:29;85849.63;;;5.86;99.53
11678;BME280;5895;41.950;24.372;2023-04-26T02:14:58;85836.22;;;5.84;100.00
11678;BME280;5895;41.950;24.372;2023-04-26T02:17:26;85850.06;;;5.83;100.00
11678;BME280;5895;41.950;24.372;2023-04-26T02:19:54;85850.84;;;5.83;100.00
11678;BME280;5895;41.950;24.372;2023-04-26T02:22:21;85845.69;;;5.83;99.68
11678;BME280;5895;41.950;24.372;2023-04-26T02:24:50;85852.44;;;5.84;100.00
11678;BME280;5895;41.950;24.372;2023-04-26T02:27:17;85864.28;;;5.86;100.00
11678;BME280;5895;41.950;24.372;2023-04-26T02:29:45;85861.13;;;5.83;100.00
11678;BME280;5895;41.950;24.372;2023-04-26T02:32:13;85868.66;;;5.85;100.00
11678;BME280;5895;41.950;24.372;2023-04-26T02:34:43;85855.56;;;5.87;100.00
11678;BME280;5895;41.950;24.372;2023-04-26T02:37:10;85848.84;;;5.86;100.00
11678;BME280;5895;41.950;24.372;2023-04-26T02:39:37;85853.53;;;5.89;100.00
11678;BME280;5895;41.950;24.372;2023-04-26T02:42:07;85848.84;;;5.86;100.00
11678;BME280;5895;41.950;24.372;2023-04-26T02:44:35;85842.47;;;5.88;100.00
11678;BME280;5895;41.950;24.372;2023-04-26T02:47:02;85840.66;;;5.89;100.00
11678;BME280;5895;41.950;24.372;2023-04-26T02:49:31;85836.53;;;5.88;100.00
11678;BME280;5895;41.950;24.372;2023-04-26T02:51:58;85828.25;;;5.86;100.00
11678;BME280;5895;41.950;24.372;2023-04-26T02:54:25;85831.84;;;5.84;100.00
11678;BME280;5895;41.950;24.372;2023-04-26T02:56:52;85831.28;;;5.82;100.00
11678;BME280;5895;41.950;24.372;2023-04-26T02:59:20;85829.72;;;5.81;100.00
11678;BME280;5895;41.950;24.372;2023-04-26T03:01:48;85825.03;;;5.78;100.00
11678;BME280;5895;41.950;24.372;2023-04-26T03:04:15;85824.44;;;5.76;100.00
11678;BME280;5895;41.950;24.372;2023-04-26T03:06:44;85835.19;;;5.73;100.00
11678;BME280;5895;41.950;24.372;2023-04-26T03:09:11;85844.38;;;5.69;100.00
11678;BME280;5895;41.950;24.372;2023-04-26T03:11:38;85842.44;;;5.65;100.00
11678;BME280;5895;41.950;24.372;2023-04-26T03:14:05;85844.47;;;5.63;100.00
11678;BME280;5895;41.950;24.372;2023-04-26T03:16:40;85852.63;;;5.60;100.00
11678;BME280;5895;41.950;24.372;2023-04-26T03:19:08;85847.72;;;5.58;100.00
11678;BME280;5895;41.950;24.372;2023-04-26T03:21:35;85845.91;;;5.58;100.00
11678;BME280;5895;41.950;24.372;2023-04-26T03:24:04;85846.69;;;5.59;100.00
11678;BME280;5895;41.950;24.372;2023-04-26T03:26:32;85851.28;;;5.57;100.00
11678;BME280;5895;41.950;24.372;2023-04-26T03:28:59;85846.16;;;5.57;100.00
11678;BME280;5895;41.950;24.372;2023-04-26T03:31:27;85844.13;;;5.59;100.00
11678;BME280;5895;41.950;24.372;2023-04-26T03:33:54;85838.97;;;5.59;100.00
11678;BME280;5895;41.950;24.372;2023-04-26T03:36:21;85836.97;;;5.61;100.00
11678;BME280;5895;41.950;24.372;2023-04-26T03:38:48;85840.53;;;5.60;100.00
11678;BME280;5895;41.950;24.372;2023-04-26T03:41:17;85835.41;;;5.60;100.00
11678;BME280;5895;41.950;24.372;2023-04-26T03:43:44;85848.84;;;5.62;100.00
11678;BME280;5895;41.950;24.372;2023-04-26T03:46:11;85852.75;;;5.65;100.00
11678;BME280;5895;41.950;24.372;2023-04-26T03:48:39;85851.97;;;5.64;100.00
11678;BME280;5895;41.950;24.372;2023-04-26T03:51:06;85854.66;;;5.69;100.00
11678;BME280;5895;41.950;24.372;2023-04-26T03:53:33;85849.50;;;5.69;100.00
11678;BME280;5895;41.950;24.372;2023-04-26T03:56:00;85849.84;;;5.73;100.00
11678;BME280;5895;41.950;24.372;2023-04-26T03:58:29;85843.47;;;5.75;100.00
11678;BME280;5895;41.950;24.372;2023-04-26T04:00:56;85855.31;;;5.76;100.00
11678;BME280;5895;41.950;24.372;2023-04-26T04:03:23;85856.56;;;5.74;100.00
11678;BME280;5895;41.950;24.372;2023-04-26T04:05:50;85860.81;;;5.68;100.00
11678;BME280;5895;41.950;24.372;2023-04-26T04:08:17;85854.66;;;5.69;100.00
11678;BME280;5895;41.950;24.372;2023-04-26T04:10:44;85863.94;;;5.70;100.00
11678;BME280;5895;41.950;24.372;2023-04-26T04:13:12;85857.22;;;5.69;100.00
11678;BME280;5895;41.950;24.372;2023-04-26T04:15:40;85853.09;;;5.68;100.00
11678;BME280;5895;41.950;24.372;2023-04-26T04:18:07;85854.44;;;5.71;100.00
11678;BME280;5895;41.950;24.372;2023-04-26T04:20:34;85865.06;;;5.74;100.00
11678;BME280;5895;41.950;24.372;2023-04-26T04:23:01;85852.19;;;5.74;100.00
11678;BME280;5895;41.950;24.372;2023-04-26T04:25:30;85854.31;;;5.77;100.00
11678;BME280;5895;41.950;24.372;2023-04-26T04:27:57;85857.47;;;5.79;100.00
11678;BME280;5895;41.950;24.372;2023-04-26T04:30:26;85864.72;;;5.82;100.00
11678;BME280;5895;41.950;24.372;2023-04-26T04:32:55;85860.72;;;5.87;100.00
11678;BME280;5895;41.950;24.372;2023-04-26T04:35:23;85864.06;;;5.87;100.00
11678;BME280;5895;41.950;24.372;2023-04-26T04:37:53;85852.75;;;5.88;100.00
11678;BME280;5895;41.950;24.372;2023-04-26T04:40:22;85859.59;;;5.94;100.00
11678;BME280;5895;41.950;24.372;2023-04-26T04:42:50;85865.09;;;5.98;100.00
11678;BME280;5895;41.950;24.372;2023-04-26T04:45:18;85858.41;;;5.97;100.00
11678;BME280;5895;41.950;24.372;2023-04-26T04:47:46;85853.91;;;6.04;100.00
11678;BME280;5895;41.950;24.372;2023-04-26T04:50:14;85844.16;;;6.06;100.00
11678;BME280;5895;41.950;24.372;2023-04-26T04:52:42;85843.94;;;6.07;100.00
11678;BME280;5895;41.950;24.372;2023-04-26T04:55:09;85845.75;;;6.07;100.00
11678;BME280;5895;41.950;24.372;2023-04-26T04:57:36;85856.81;;;6.07;100.00
11678;BME280;5895;41.950;24.372;2023-04-26T05:00:04;85859.94;;;6.09;100.00
11678;BME280;5895;41.950;24.372;2023-04-26T05:02:34;85855.16;;;6.13;100.00
11678;BME280;5895;41.950;24.372;2023-04-26T05:05:02;85857.25;;;6.16;100.00
11678;BME280;5895;41.950;24.372;2023-04-26T05:07:31;85856.81;;;6.19;100.00
11678;BME280;5895;41.950;24.372;2023-04-26T05:09:59;85856.34;;;6.22;100.00
11678;BME280;5895;41.950;24.372;2023-04-26T05:12:26;85848.19;;;6.25;100.00
11678;BME280;5895;41.950;24.372;2023-04-26T05:14:53;85850.53;;;6.27;100.00
11678;BME280;5895;41.950;24.372;2023-04-26T05:17:20;85848.53;;;6.29;100.00
11678;BME280;5895;41.950;24.372;2023-04-26T05:19:48;85841.22;;;6.38;100.00
11678;BME280;5895;41.950;24.372;2023-04-26T05:22:15;85844.25;;;6.46;100.00
11678;BME280;5895;41.950;24.372;2023-04-26T05:24:45;85840.06;;;6.57;100.00
11678;BME280;5895;41.950;24.372;2023-04-26T05:27:13;85835.09;;;6.67;100.00
11678;BME280;5895;41.950;24.372;2023-04-26T05:29:40;85837.44;;;6.80;100.00
11678;BME280;5895;41.950;24.372;2023-04-26T05:32:07;85839.72;;;6.94;100.00
11678;BME280;5895;41.950;24.372;2023-04-26T05:34:34;85841.47;;;7.05;99.73
11678;BME280;5895;41.950;24.372;2023-04-26T05:37:03;85840.41;;;7.18;99.45
11678;BME280;5895;41.950;24.372;2023-04-26T05:39:30;85839.34;;;7.30;97.92
11678;BME280;5895;41.950;24.372;2023-04-26T05:41:59;85843.78;;;7.47;98.13
11678;BME280;5895;41.950;24.372;2023-04-26T05:44:26;85838.84;;;7.62;96.76
11678;BME280;5895;41.950;24.372;2023-04-26T05:46:53;85840.66;;;7.78;95.72
11678;BME280;5895;41.950;24.372;2023-04-26T05:49:20;85841.41;;;7.95;94.41
11678;BME280;5895;41.950;24.372;2023-04-26T05:51:47;85834.34;;;8.08;94.61
11678;BME280;5895;41.950;24.372;2023-04-26T05:54:14;85830.38;;;8.17;94.69
11678;BME280;5895;41.950;24.372;2023-04-26T05:56:41;85831.75;;;8.25;94.17
11678;BME280;5895;41.950;24.372;2023-04-26T05:59:10;85840.44;;;8.35;94.99
11678;BME280;5895;41.950;24.372;2023-04-26T06:01:38;85829.91;;;8.37;94.06
11678;BME280;5895;41.950;24.372;2023-04-26T06:04:05;85836.00;;;8.31;93.31
11678;BME280;5895;41.950;24.372;2023-04-26T06:06:32;85841.88;;;8.26;91.37
11678;BME280;5895;41.950;24.372;2023-04-26T06:08:59;85835.59;;;8.22;91.43
11678;BME280;5895;41.950;24.372;2023-04-26T06:11:26;85829.50;;;8.11;95.10
11678;BME280;5895;41.950;24.372;2023-04-26T06:13:53;85834.25;;;7.98;96.99
11678;BME280;5895;41.950;24.372;2023-04-26T06:16:22;85843.91;;;7.90;96.55
11678;BME280;5895;41.950;24.372;2023-04-26T06:18:49;85838.22;;;7.88;96.08
11678;BME280;5895;41.950;24.372;2023-04-26T06:21:16;85834.63;;;7.89;97.00
11678;BME280;5895;41.950;24.372;2023-04-26T06:23:43;85840.41;;;7.96;96.98
11678;BME280;5895;41.950;24.372;2023-04-26T06:26:11;85842.53;;;8.00;96.88
11678;BME280;5895;41.950;24.372;2023-04-26T06:28:38;85834.06;;;8.04;97.58
11678;BME280;5895;41.950;24.372;2023-04-26T06:31:05;85827.63;;;8.07;97.68
11678;BME280;5895;41.950;24.372;2023-04-26T06:33:34;85828.75;;;8.11;97.33
11678;BME280;5895;41.950;24.372;2023-04-26T06:36:01;85828.75;;;8.11;96.94
11678;BME280;5895;41.950;24.372;2023-04-26T06:38:28;85830.22;;;8.07;98.30
11678;BME280;5895;41.950;24.372;2023-04-26T06:40:55;85836.41;;;8.06;97.69
11678;BME280;5895;41.950;24.372;2023-04-26T06:43:23;85828.13;;;8.04;97.21
11678;BME280;5895;41.950;24.372;2023-04-26T06:45:50;85834.06;;;8.04;97.76
11678;BME280;5895;41.950;24.372;2023-04-26T06:48:17;85844.66;;;8.03;96.41
11678;BME280;5895;41.950;24.372;2023-04-26T06:50:46;85834.84;;;8.05;97.64
11678;BME280;5895;41.950;24.372;2023-04-26T06:53:13;85840.63;;;8.12;96.43
11678;BME280;5895;41.950;24.372;2023-04-26T06:55:40;85837.16;;;8.23;96.62
11678;BME280;5895;41.950;24.372;2023-04-26T06:58:07;85843.63;;;8.37;96.54
11678;BME280;5895;41.950;24.372;2023-04-26T07:00:34;85842.09;;;8.41;95.38
11678;BME280;5895;41.950;24.372;2023-04-26T07:03:01;85844.16;;;8.39;96.25
11678;BME280;5895;41.950;24.372;2023-04-26T07:05:28;85844.63;;;8.36;97.41
11678;BME280;5895;41.950;24.372;2023-04-26T07:07:57;85840.78;;;8.22;98.96
11678;BME280;5895;41.950;24.372;2023-04-26T07:10:24;85840.63;;;8.12;99.56
11678;BME280;5895;41.950;24.372;2023-04-26T07:12:51;85845.50;;;8.08;99.18
11678;BME280;5895;41.950;24.372;2023-04-26T07:15:18;85850.34;;;8.05;96.64
11678;BME280;5895;41.950;24.372;2023-04-26T07:17:45;85841.56;;;8.06;96.14
11678;BME280;5895;41.950;24.372;2023-04-26T07:20:13;85844.66;;;8.03;98.31
11678;BME280;5895;41.950;24.372;2023-04-26T07:22:44;85849.16;;;7.95;98.18
11678;BME280;5895;41.950;24.372;2023-04-26T07:25:13;85852.41;;;7.86;98.83
11678;BME280;5895;41.950;24.372;2023-04-26T07:27:40;85858.34;;;7.86;98.66
11678;BME280;5895;41.950;24.372;2023-04-26T07:30:08;85858.09;;;7.88;98.26
11678;BME280;5895;41.950;24.372;2023-04-26T07:32:35;85861.78;;;7.92;98.16
11678;BME280;5895;41.950;24.372;2023-04-26T07:35:05;85853.31;;;7.96;98.52
11678;BME280;5895;41.950;24.372;2023-04-26T07:37:33;85852.41;;;8.03;96.83
11678;BME280;5895;41.950;24.372;2023-04-26T07:40:00;85860.19;;;8.08;96.35
11678;BME280;5895;41.950;24.372;2023-04-26T07:42:28;85869.63;;;8.14;96.16
11678;BME280;5895;41.950;24.372;2023-04-26T07:44:56;85860.59;;;8.16;96.20
11678;BME280;5895;41.950;24.372;2023-04-26T07:47:23;85859.31;;;8.19;97.10
11678;BME280;5895;41.950;24.372;2023-04-26T07:49:52;85857.75;;;8.18;97.59
11678;BME280;5895;41.950;24.372;2023-04-26T07:52:19;85865.44;;;8.13;96.56
11678;BME280;5895;41.950;24.372;2023-04-26T07:54:46;85867.72;;;8.09;97.85
11678;BME280;5895;41.950;24.372;2023-04-26T07:57:14;85865.84;;;8.05;97.64
11678;BME280;5895;41.950;24.372;2023-04-26T07:59:42;85861.13;;;8.02;97.44
11678;BME280;5895;41.950;24.372;2023-04-26T08:02:09;85871.38;;;7.96;97.22
11678;BME280;5895;41.950;24.372;2023-04-26T08:04:37;85864.59;;;7.90;98.11
11678;BME280;5895;41.950;24.372;2023-04-26T08:07:04;85864.03;;;7.88;98.84
11678;BME280;5895;41.950;24.372;2023-04-26T08:09:31;85861.91;;;7.85;99.04
11678;BME280;5895;41.950;24.372;2023-04-26T08:11:58;85869.91;;;7.84;99.02
11678;BME280;5895;41.950;24.372;2023-04-26T08:14:25;85863.44;;;7.81;99.64
11678;BME280;5895;41.950;24.372;2023-04-26T08:16:55;85870.53;;;7.74;99.74
11678;BME280;5895;41.950;24.372;2023-04-26T08:19:22;85871.47;;;7.68;100.00
11678;BME280;5895;41.950;24.372;2023-04-26T08:21:51;85873.50;;;7.66;100.00
11678;BME280;5895;41.950;24.372;2023-04-26T08:24:18;85876.00;;;7.61;100.00
11678;BME280;5895;41.950;24.372;2023-04-26T08:26:45;85868.16;;;7.56;100.00
11678;BME280;5895;41.950;24.372;2023-04-26T08:29:12;85878.97;;;7.53;100.00
11678;BME280;5895;41.950;24.372;2023-04-26T08:31:40;85865.00;;;7.37;100.00
11678;BME280;5895;41.950;24.372;2023-04-26T08:34:08;85878.94;;;7.36;100.00
11678;BME280;5895;41.950;24.372;2023-04-26T08:36:38;85885.56;;;7.32;100.00
11678;BME280;5895;41.950;24.372;2023-04-26T08:39:06;85891.41;;;7.27;100.00
11678;BME280;5895;41.950;24.372;2023-04-26T08:41:35;85890.38;;;7.28;100.00
11678;BME280;5895;41.950;24.372;2023-04-26T08:44:04;85896.13;;;7.30;100.00
11678;BME280;5895;41.950;24.372;2023-04-26T08:46:36;85892.53;;;7.31;100.00
11678;BME280;5895;41.950;24.372;2023-04-26T08:49:14;85897.44;;;7.33;100.00
11678;BME280;5895;41.950;24.372;2023-04-26T08:51:46;85892.53;;;7.31;100.00
11678;BME280;5895;41.950;24.372;2023-04-26T08:54:14;85890.63;;;7.27;99.95
11678;BME280;5895;41.950;24.372;2023-04-26T08:56:43;85892.19;;;7.28;100.00
11678;BME280;5895;41.950;24.372;2023-04-26T08:59:12;85895.34;;;7.30;100.00
11678;BME280;5895;41.950;24.372;2023-04-26T09:01:40;85892.97;;;7.28;100.00
11678;BME280;5895;41.950;24.372;2023-04-26T09:04:11;85897.81;;;7.25;100.00
11678;BME280;5895;41.950;24.372;2023-04-26T09:06:39;85904.78;;;7.24;100.00
11678;BME280;5895;41.950;24.372;2023-04-26T09:09:08;85901.41;;;7.24;100.00
11678;BME280;5895;41.950;24.372;2023-04-26T09:11:54;85907.66;;;7.28;100.00
11678;BME280;5895;41.950;24.372;2023-04-26T09:14:21;85905.53;;;7.36;100.00
11678;BME280;5895;41.950;24.372;2023-04-26T09:16:48;85900.41;;;7.53;100.00
11678;BME280;5895;41.950;24.372;2023-04-26T09:19:33;85889.78;;;7.66;100.00
11678;BME280;5895;41.950;24.372;2023-04-26T09:22:02;85888.59;;;7.74;97.86
11678;BME280;5895;41.950;24.372;2023-04-26T09:24:45;85888.38;;;7.76;98.02
11678;BME280;5895;41.950;24.372;2023-04-26T09:27:13;85893.72;;;7.57;97.13
11678;BME280;5895;41.950;24.372;2023-04-26T09:29:56;85896.00;;;7.54;98.86
11678;BME280;5895;41.950;24.372;2023-04-26T09:32:24;85898.25;;;7.50;99.00
11678;BME280;5895;41.950;24.372;2023-04-26T09:34:53;85901.63;;;7.51;98.91
11678;BME280;5895;41.950;24.372;2023-04-26T09:37:20;85900.53;;;7.47;98.63
11678;BME280;5895;41.950;24.372;2023-04-26T09:39:47;85892.56;;;7.48;98.93
11678;BME280;5895;41.950;24.372;2023-04-26T09:42:16;85902.78;;;7.43;98.99
11678;BME280;5895;41.950;24.372;2023-04-26T09:44:44;85900.53;;;7.47;99.37
11678;BME280;5895;41.950;24.372;2023-04-26T09:47:11;85895.22;;;7.53;99.57
11678;BME280;5895;41.950;24.372;2023-04-26T09:49:44;85889.00;;;7.66;100.00
11678;BME280;5895;41.950;24.372;2023-04-26T09:52:14;85879.94;;;7.80;99.46
11678;BME280;5895;41.950;24.372;2023-04-26T09:54:44;85886.88;;;7.96;99.89
11678;BME280;5895;41.950;24.372;2023-04-26T09:57:13;85884.00;;;8.10;98.88
11678;BME280;5895;41.950;24.372;2023-04-26T09:59:44;85871.78;;;8.22;98.27
11678;BME280;5895;41.950;24.372;2023-04-26T10:02:17;85870.91;;;8.33;97.54
11678;BME280;5895;41.950;24.372;2023-04-26T10:04:47;85870.06;;;8.44;96.36
11678;BME280;5895;41.950;24.372;2023-04-26T10:07:17;85862.84;;;8.46;94.67
11678;BME280;5895;41.950;24.372;2023-04-26T10:09:47;85868.47;;;8.60;96.26
11678;BME280;5895;41.950;24.372;2023-04-26T10:12:15;85861.22;;;8.79;95.09
11678;BME280;5895;41.950;24.372;2023-04-26T10:14:43;85857.66;;;8.85;94.76
11678;BME280;5895;41.950;24.372;2023-04-26T10:17:11;85866.09;;;8.76;94.09
11678;BME280;5895;41.950;24.372;2023-04-26T10:19:40;85857.50;;;8.70;94.54
11678;BME280;5895;41.950;24.372;2023-04-26T10:22:13;85865.78;;;8.72;95.53
11678;BME280;5895;41.950;24.372;2023-04-26T10:24:44;85862.66;;;8.70;96.08
11678;BME280;5895;41.950;24.372;2023-04-26T10:27:11;85854.66;;;8.71;95.58
11678;BME280;5895;41.950;24.372;2023-04-26T10:30:06;85852.31;;;8.70;96.77
11678;BME280;5895;41.950;24.372;2023-04-26T10:36:05;85864.31;;;8.59;95.11
11678;BME280;5895;41.950;24.372;2023-04-26T10:38:33;85863.94;;;8.51;94.92
11678;BME280;5895;41.950;24.372;2023-04-26T10:41:31;85866.16;;;8.42;95.91
11678;BME280;5895;41.950;24.372;2023-04-26T10:44:00;85868.97;;;8.40;96.61
11678;BME280;5895;41.950;24.372;2023-04-26T10:46:51;85871.44;;;8.35;97.27
11678;BME280;5895;41.950;24.372;2023-04-26T10:49:19;85875.84;;;8.35;96.94
11678;BME280;5895;41.950;24.372;2023-04-26T10:52:12;85872.47;;;8.34;98.12
11678;BME280;5895;41.950;24.372;2023-04-26T10:54:54;85873.19;;;8.30;97.91
11678;BME280;5895;41.950;24.372;2023-04-26T10:57:44;85860.34;;;8.35;98.23
11678;BME280;5895;41.950;24.372;2023-04-26T11:00:19;85861.84;;;8.47;97.82
11678;BME280;5895;41.950;24.372;2023-04-26T11:02:53;85862.53;;;8.60;97.06
11678;BME280;5895;41.950;24.372;2023-04-26T11:05:47;85852.59;;;8.73;97.90
11678;BME280;5895;41.950;24.372;2023-04-26T11:08:16;85845.75;;;8.84;95.80
11678;BME280;5895;41.950;24.372;2023-04-26T11:10:48;85846.59;;;8.90;95.24
11678;BME280;5895;41.950;24.372;2023-04-26T11:13:18;85848.28;;;9.01;95.50
11678;BME280;5895;41.950;24.372;2023-04-26T11:15:46;85849.66;;;9.09;95.72
11678;BME280;5895;41.950;24.372;2023-04-26T11:18:17;85853.25;;;9.08;95.04
11678;BME280;5895;41.950;24.372;2023-04-26T11:20:45;85857.78;;;8.95;94.21
11678;BME280;5895;41.950;24.372;2023-04-26T11:23:13;85846.59;;;8.90;94.55
11678;BME280;5895;41.950;24.372;2023-04-26T11:25:40;85855.56;;;8.82;95.35
11678;BME280;5895;41.950;24.372;2023-04-26T11:28:07;85852.91;;;8.77;94.29
11678;BME280;5895;41.950;24.372;2023-04-26T11:30:35;85853.09;;;8.70;95.41
11678;BME280;5895;41.950;24.372;2023-04-26T11:33:02;85856.84;;;8.63;95.21
11678;BME280;5895;41.950;24.372;2023-04-26T11:35:34;85856.41;;;8.66;95.42
11678;BME280;5895;41.950;24.372;2023-04-26T11:38:03;85852.97;;;8.60;95.79
11678;BME280;5895;41.950;24.372;2023-04-26T11:40:31;85850.63;;;8.59;96.69
11678;BME280;5895;41.950;24.372;2023-04-26T11:43:02;85855.72;;;8.54;95.98
11678;BME280;5895;41.950;24.372;2023-04-26T11:45:31;85860.50;;;8.45;95.51
11678;BME280;5895;41.950;24.372;2023-04-26T11:48:00;85849.56;;;8.38;96.35
11678;BME280;5895;41.950;24.372;2023-04-26T11:50:28;85858.00;;;8.33;95.88
11678;BME280;5895;41.950;24.372;2023-04-26T11:52:57;85858.44;;;8.30;96.59
11678;BME280;5895;41.950;24.372;2023-04-26T11:55:27;85855.81;;;8.25;96.84
11678;BME280;5895;41.950;24.372;2023-04-26T11:57:55;85853.94;;;8.20;96.68
11678;BME280;5895;41.950;24.372;2023-04-26T12:00:24;85853.63;;;8.17;95.85
11678;BME280;5895;41.950;24.372;2023-04-26T12:02:52;85860.34;;;8.18;95.87
11678;BME280;5895;41.950;24.372;2023-04-26T12:05:23;85862.84;;;8.13;95.64
11678;BME280;5895;41.950;24.372;2023-04-26T12:07:50;85870.53;;;8.08;96.58
11678;BME280;5895;41.950;24.372;2023-04-26T12:10:22;85866.63;;;8.05;96.15
11678;BME280;5895;41.950;24.372;2023-04-26T12:12:50;85867.91;;;8.03;97.61
11678;BME280;5895;41.950;24.372;2023-04-26T12:15:19;85866.31;;;8.02;96.92
11678;BME280;5895;41.950;24.372;2023-04-26T12:17:53;85866.31;;;8.02;97.95
11678;BME280;5895;41.950;24.372;2023-04-26T12:20:30;85868.34;;;8.00;98.03
11678;BME280;5895;41.950;24.372;2023-04-26T12:23:02;85869.28;;;7.93;97.76
11678;BME280;5895;41.950;24.372;2023-04-26T12:25:30;85873.34;;;7.89;96.75
11678;BME280;5895;41.950;24.372;2023-04-26T12:27:58;85878.75;;;7.88;96.48
11678;BME280;5895;41.950;24.372;2023-04-26T12:30:26;85877.91;;;7.82;96.62
11678;BME280;5895;41.950;24.372;2023-04-26T12:32:54;85872.09;;;7.75;95.81
11678;BME280;5895;41.950;24.372;2023-04-26T12:35:22;85871.53;;;7.73;96.68
11678;BME280;5895;41.950;24.372;2023-04-26T12:37:51;85869.91;;;7.67;95.63
11678;BME280;5895;41.950;24.372;2023-04-26T12:40:21;85875.66;;;7.57;95.47
11678;BME280;5895;41.950;24.372;2023-04-26T12:42:49;85873.81;;;7.53;96.19
11678;BME280;5895;41.950;24.372;2023-04-26T12:45:16;85868.56;;;7.48;95.48
11678;BME280;5895;41.950;24.372;2023-04-26T12:47:44;85869.47;;;7.41;95.90
11678;BME280;5895;41.950;24.372;2023-04-26T12:50:12;85878.78;;;7.42;96.87
11678;BME280;5895;41.950;24.372;2023-04-26T12:52:40;85875.09;;;7.38;96.16
11678;BME280;5895;41.950;24.372;2023-04-26T12:55:10;85873.88;;;7.29;96.45
11678;BME280;5895;41.950;24.372;2023-04-26T12:57:38;85874.81;;;7.23;97.01
11678;BME280;5895;41.950;24.372;2023-04-26T13:00:08;85863.97;;;7.21;95.72
11678;BME280;5895;41.950;24.372;2023-04-26T13:02:36;85868.09;;;7.22;97.21
11678;BME280;5895;41.950;24.372;2023-04-26T13:05:04;85869.22;;;7.26;97.41
11678;BME280;5895;41.950;24.372;2023-04-26T13:07:32;85863.56;;;7.29;96.88
11678;BME280;5895;41.950;24.372;2023-04-26T13:09:59;85863.13;;;7.32;97.03
11678;BME280;5895;41.950;24.372;2023-04-26T13:12:28;85865.16;;;7.30;95.65
11678;BME280;5895;41.950;24.372;2023-04-26T13:14:55;85873.81;;;7.24;96.14
11678;BME280;5895;41.950;24.372;2023-04-26T13:17:24;85872.72;;;7.20;97.73